sensor_id;sensor_type;location;lat;lon;timestamp;temperature;humidity
67147;DHT22;70072;52.036;5.558;2023-05-09T17:49:14;19.20;99.90
67147;DHT22;70072;52.036;5.558;2023-05-09T17:51:41;20.20;98.30
67147;DHT22;70072;52.036;5.558;2023-05-09T17:54:07;20.40;98.40
67147;DHT22;70072;52.036;5.558;2023-05-09T17:56:32;20.60;98.50
67147;DHT22;70072;52.036;5.558;2023-05-09T17:58:58;20.90;98.20
67147;DHT22;70072;52.036;5.558;2023-05-09T18:01:24;21.10;98.00
67147;DHT22;70072;52.036;5.558;2023-05-09T18:03:50;21.20;97.80
67147;DHT22;70072;52.036;5.558;2023-05-09T18:06:16;21.30;97.60
67147;DHT22;70072;52.036;5.558;2023-05-09T18:08:42;21.50;97.50
67147;DHT22;70072;52.036;5.558;2023-05-09T18:11:08;21.50;97.40
67147;DHT22;70072;52.036;5.558;2023-05-09T18:13:34;21.60;97.10
67147;DHT22;70072;52.036;5.558;2023-05-09T18:16:00;21.70;96.90
67147;DHT22;70072;52.036;5.558;2023-05-09T18:18:27;21.80;96.80
67147;DHT22;70072;52.036;5.558;2023-05-09T18:20:57;21.90;96.70
67147;DHT22;70072;52.036;5.558;2023-05-09T18:23:24;21.90;96.40
67147;DHT22;70072;52.036;5.558;2023-05-09T18:25:50;22.00;96.20
67147;DHT22;70072;52.036;5.558;2023-05-09T18:28:17;22.10;96.10
67147;DHT22;70072;52.036;5.558;2023-05-09T18:30:56;22.10;95.70
67147;DHT22;70072;52.036;5.558;2023-05-09T18:33:23;22.20;95.70
67147;DHT22;70072;52.036;5.558;2023-05-09T18:35:49;22.10;95.50
67147;DHT22;70072;52.036;5.558;2023-05-09T18:38:14;22.20;95.60
67147;DHT22;70072;52.036;5.558;2023-05-09T18:40:41;22.20;95.10
67147;DHT22;70072;52.036;5.558;2023-05-09T18:43:07;22.20;95.00
67147;DHT22;70072;52.036;5.558;2023-05-09T18:45:33;22.20;94.80
67147;DHT22;70072;52.036;5.558;2023-05-09T18:48:00;22.20;94.60
67147;DHT22;70072;52.036;5.558;2023-05-09T18:50:26;22.20;94.40
67147;DHT22;70072;52.036;5.558;2023-05-09T18:52:52;22.30;94.30
67147;DHT22;70072;52.036;5.558;2023-05-09T18:55:18;22.30;94.20
67147;DHT22;70072;52.036;5.558;2023-05-09T18:57:45;22.30;93.90
67147;DHT22;70072;52.036;5.558;2023-05-09T19:00:11;22.30;93.90
67147;DHT22;70072;52.036;5.558;2023-05-09T19:02:37;22.30;93.70
67147;DHT22;70072;52.036;5.558;2023-05-09T19:05:07;22.30;93.50
67147;DHT22;70072;52.036;5.558;2023-05-09T19:07:36;22.30;92.90
67147;DHT22;70072;52.036;5.558;2023-05-09T19:10:03;22.30;92.80
67147;DHT22;70072;52.036;5.558;2023-05-09T19:12:30;22.30;93.00
67147;DHT22;70072;52.036;5.558;2023-05-09T19:14:56;22.30;92.80
67147;DHT22;70072;52.036;5.558;2023-05-09T19:17:22;22.40;92.70
67147;DHT22;70072;52.036;5.558;2023-05-09T19:19:47;22.40;92.50
67147;DHT22;70072;52.036;5.558;2023-05-09T19:22:13;22.40;92.30
67147;DHT22;70072;52.036;5.558;2023-05-09T19:24:39;22.40;92.30
67147;DHT22;70072;52.036;5.558;2023-05-09T19:27:05;22.40;92.20
67147;DHT22;70072;52.036;5.558;2023-05-09T19:29:32;22.40;91.90
67147;DHT22;70072;52.036;5.558;2023-05-09T19:31:58;22.40;91.90
67147;DHT22;70072;52.036;5.558;2023-05-09T19:34:24;22.40;91.70
67147;DHT22;70072;52.036;5.558;2023-05-09T19:36:50;22.40;91.60
67147;DHT22;70072;52.036;5.558;2023-05-09T19:39:16;22.40;91.40
67147;DHT22;70072;52.036;5.558;2023-05-09T19:41:41;22.40;91.50
67147;DHT22;70072;52.036;5.558;2023-05-09T19:44:07;22.40;91.30
67147;DHT22;70072;52.036;5.558;2023-05-09T19:46:33;22.40;91.20
67147;DHT22;70072;52.036;5.558;2023-05-09T19:49:00;22.40;91.20
67147;DHT22;70072;52.036;5.558;2023-05-09T19:51:25;22.40;91.00
67147;DHT22;70072;52.036;5.558;2023-05-09T19:53:51;22.40;90.90
67147;DHT22;70072;52.036;5.558;2023-05-09T19:56:17;22.40;90.80
67147;DHT22;70072;52.036;5.558;2023-05-09T19:58:42;22.40;90.80
67147;DHT22;70072;52.036;5.558;2023-05-09T20:01:08;22.40;90.70
67147;DHT22;70072;52.036;5.558;2023-05-09T20:03:34;22.40;90.40
67147;DHT22;70072;52.036;5.558;2023-05-09T20:06:01;22.40;90.60
67147;DHT22;70072;52.036;5.558;2023-05-09T20:08:27;22.40;90.50
67147;DHT22;70072;52.036;5.558;2023-05-09T20:10:53;22.40;90.40
67147;DHT22;70072;52.036;5.558;2023-05-09T20:13:18;22.40;90.20
67147;DHT22;70072;52.036;5.558;2023-05-09T20:15:45;22.40;90.10
67147;DHT22;70072;52.036;5.558;2023-05-09T20:18:11;22.40;90.00
67147;DHT22;70072;52.036;5.558;2023-05-09T20:20:36;22.40;90.50
67147;DHT22;70072;52.036;5.558;2023-05-09T20:23:02;22.40;90.70
67147;DHT22;70072;52.036;5.558;2023-05-09T20:25:28;22.40;90.50
67147;DHT22;70072;52.036;5.558;2023-05-09T20:27:53;22.40;90.40
67147;DHT22;70072;52.036;5.558;2023-05-09T20:30:21;22.40;90.20
67147;DHT22;70072;52.036;5.558;2023-05-09T20:32:47;22.40;90.00
67147;DHT22;70072;52.036;5.558;2023-05-09T20:35:13;22.40;90.00
67147;DHT22;70072;52.036;5.558;2023-05-09T20:37:38;22.40;89.60
67147;DHT22;70072;52.036;5.558;2023-05-09T20:40:04;22.40;89.50
67147;DHT22;70072;52.036;5.558;2023-05-09T20:42:31;22.40;89.10
67147;DHT22;70072;52.036;5.558;2023-05-09T20:44:57;22.40;88.80
67147;DHT22;70072;52.036;5.558;2023-05-09T20:47:23;22.40;88.50
67147;DHT22;70072;52.036;5.558;2023-05-09T20:49:49;22.40;88.40
67147;DHT22;70072;52.036;5.558;2023-05-09T20:52:14;22.40;88.10
67147;DHT22;70072;52.036;5.558;2023-05-09T20:54:40;22.40;87.90
67147;DHT22;70072;52.036;5.558;2023-05-09T20:57:06;22.40;87.80
67147;DHT22;70072;52.036;5.558;2023-05-09T20:59:32;22.40;87.60
67147;DHT22;70072;52.036;5.558;2023-05-09T21:01:58;22.40;87.40
67147;DHT22;70072;52.036;5.558;2023-05-09T21:04:23;22.40;87.10
67147;DHT22;70072;52.036;5.558;2023-05-09T21:06:49;22.40;87.00
67147;DHT22;70072;52.036;5.558;2023-05-09T21:09:15;22.40;86.80
67147;DHT22;70072;52.036;5.558;2023-05-09T21:11:40;22.40;86.70
67147;DHT22;70072;52.036;5.558;2023-05-09T21:14:09;22.40;86.50
67147;DHT22;70072;52.036;5.558;2023-05-09T21:16:35;22.40;86.30
67147;DHT22;70072;52.036;5.558;2023-05-09T21:19:01;22.40;86.20
67147;DHT22;70072;52.036;5.558;2023-05-09T21:21:32;22.40;86.00
67147;DHT22;70072;52.036;5.558;2023-05-09T21:24:01;22.40;85.90
67147;DHT22;70072;52.036;5.558;2023-05-09T21:26:33;22.40;85.40
67147;DHT22;70072;52.036;5.558;2023-05-09T21:28:59;22.40;85.50
67147;DHT22;70072;52.036;5.558;2023-05-09T21:31:27;22.40;85.30
67147;DHT22;70072;52.036;5.558;2023-05-09T21:33:53;22.40;84.90
67147;DHT22;70072;52.036;5.558;2023-05-09T21:36:18;22.40;85.10
67147;DHT22;70072;52.036;5.558;2023-05-09T21:38:44;22.40;84.90
67147;DHT22;70072;52.036;5.558;2023-05-09T21:41:10;22.40;84.80
67147;DHT22;70072;52.036;5.558;2023-05-09T21:43:35;22.40;84.80
67147;DHT22;70072;52.036;5.558;2023-05-09T21:46:03;22.40;84.60
67147;DHT22;70072;52.036;5.558;2023-05-09T21:48:29;22.40;84.30
67147;DHT22;70072;52.036;5.558;2023-05-09T21:50:55;22.40;84.20
67147;DHT22;70072;52.036;5.558;2023-05-09T21:53:20;22.40;84.10
67147;DHT22;70072;52.036;5.558;2023-05-09T21:55:47;22.40;83.90
67147;DHT22;70072;52.036;5.558;2023-05-09T21:58:13;22.40;83.70
67147;DHT22;70072;52.036;5.558;2023-05-09T22:00:39;22.40;83.60
67147;DHT22;70072;52.036;5.558;2023-05-09T22:03:04;22.40;83.50
67147;DHT22;70072;52.036;5.558;2023-05-09T22:05:30;22.40;83.30
67147;DHT22;70072;52.036;5.558;2023-05-09T22:07:55;22.40;83.20
67147;DHT22;70072;52.036;5.558;2023-05-09T22:10:21;22.40;83.00
67147;DHT22;70072;52.036;5.558;2023-05-09T22:12:47;22.40;82.90
67147;DHT22;70072;52.036;5.558;2023-05-09T22:15:12;22.40;82.70
67147;DHT22;70072;52.036;5.558;2023-05-09T22:17:38;22.40;82.50
67147;DHT22;70072;52.036;5.558;2023-05-09T22:20:04;22.40;82.40
67147;DHT22;70072;52.036;5.558;2023-05-09T22:22:30;22.40;82.30
67147;DHT22;70072;52.036;5.558;2023-05-09T22:24:57;22.40;82.50
67147;DHT22;70072;52.036;5.558;2023-05-09T22:27:23;22.40;82.00
67147;DHT22;70072;52.036;5.558;2023-05-09T22:29:49;22.40;81.90
67147;DHT22;70072;52.036;5.558;2023-05-09T22:32:14;22.40;81.80
67147;DHT22;70072;52.036;5.558;2023-05-09T22:34:40;22.40;81.60
67147;DHT22;70072;52.036;5.558;2023-05-09T22:37:06;22.40;81.60
67147;DHT22;70072;52.036;5.558;2023-05-09T22:39:32;22.40;81.50
67147;DHT22;70072;52.036;5.558;2023-05-09T22:41:57;22.40;81.40
67147;DHT22;70072;52.036;5.558;2023-05-09T22:44:23;22.30;81.30
67147;DHT22;70072;52.036;5.558;2023-05-09T22:46:49;22.30;81.10
67147;DHT22;70072;52.036;5.558;2023-05-09T22:49:14;22.30;81.00
67147;DHT22;70072;52.036;5.558;2023-05-09T22:51:43;22.40;81.00
67147;DHT22;70072;52.036;5.558;2023-05-09T22:54:08;22.40;80.80
67147;DHT22;70072;52.036;5.558;2023-05-09T22:56:36;22.30;80.60
67147;DHT22;70072;52.036;5.558;2023-05-09T22:59:02;22.30;80.60
67147;DHT22;70072;52.036;5.558;2023-05-09T23:01:27;22.30;80.40
67147;DHT22;70072;52.036;5.558;2023-05-09T23:03:53;22.30;80.40
67147;DHT22;70072;52.036;5.558;2023-05-09T23:06:19;22.30;80.20
67147;DHT22;70072;52.036;5.558;2023-05-09T23:08:44;22.30;80.20
67147;DHT22;70072;52.036;5.558;2023-05-09T23:11:12;22.30;80.10
67147;DHT22;70072;52.036;5.558;2023-05-09T23:13:37;22.30;80.00
67147;DHT22;70072;52.036;5.558;2023-05-09T23:16:03;22.30;80.00
67147;DHT22;70072;52.036;5.558;2023-05-09T23:18:29;22.30;79.80
67147;DHT22;70072;52.036;5.558;2023-05-09T23:20:55;22.30;79.80
67147;DHT22;70072;52.036;5.558;2023-05-09T23:23:21;22.30;79.70
67147;DHT22;70072;52.036;5.558;2023-05-09T23:25:46;22.30;79.60
67147;DHT22;70072;52.036;5.558;2023-05-09T23:28:12;22.30;79.50
67147;DHT22;70072;52.036;5.558;2023-05-09T23:30:37;22.30;79.50
67147;DHT22;70072;52.036;5.558;2023-05-09T23:33:03;22.30;79.40
67147;DHT22;70072;52.036;5.558;2023-05-09T23:35:29;22.30;79.30
67147;DHT22;70072;52.036;5.558;2023-05-09T23:37:54;22.30;79.30
67147;DHT22;70072;52.036;5.558;2023-05-09T23:40:20;22.30;79.80
67147;DHT22;70072;52.036;5.558;2023-05-09T23:42:45;22.30;79.10
67147;DHT22;70072;52.036;5.558;2023-05-09T23:45:14;22.30;79.00
67147;DHT22;70072;52.036;5.558;2023-05-09T23:47:39;22.30;78.90
67147;DHT22;70072;52.036;5.558;2023-05-09T23:50:05;22.30;78.90
67147;DHT22;70072;52.036;5.558;2023-05-09T23:52:31;22.30;78.90
67147;DHT22;70072;52.036;5.558;2023-05-09T23:54:59;22.30;78.80
67147;DHT22;70072;52.036;5.558;2023-05-09T23:57:25;22.30;78.60
67147;DHT22;70072;52.036;5.558;2023-05-09T23:59:50;22.30;78.60
